• Join FlightAware (Why Join?)
  • Login
  • US Flag 
12:19PM EDT


 

Airport Tracker/Info


-or-


 

Live Flight TrackerFlight Track Log ✈ N81AX ✈ 05-May-2013 ✈ KBKL - KDSM

Flight Track Log - Related Links

Times and Time Zones

All times are in EDT time to prevent confusion due to time zone crossing. See the N81AX flight status page for this flight to view local times or setup timezone preferences in your user account.

Time Position Orientation Groundspeed Altitude Reporting Facility
EDT Latitude Longitude Course Direction KTS MPH feet Rate Location/Type
04:10PM 41.5275 -81.6675 350° North 190 219 1,100  Level Cleveland Center
04:11PM 41.5942 -81.6825 350° North 269 310 3,200 1,980 Climbing Cleveland Center
04:12PM 41.6369 -81.7722 303° West 302 348 5,100 2,280 Climbing Cleveland Center
04:12PM 41.6428 -81.8197 279° West 296 341 6,800 2,520 Climbing Cleveland Center
04:13PM 41.6042 -81.9022 238° Southwest 298 343 9,000 1,980 Climbing Cleveland Center
04:14PM 41.5408 -81.9731 220° Southwest 292 336 10,800 3,000 Climbing Cleveland Center
04:15PM 41.4669 -82.0544 220° Southwest 331 381 15,100 3,600 Climbing Cleveland Center
04:16PM 41.4133 -82.1694 238° Southwest 354 407 18,100 2,520 Climbing Cleveland Center
04:17PM 41.4003 -82.3381 264° West 390 449 20,200 2,820 Climbing Cleveland Center
04:18PM 41.4247 -82.5022 281° West 415 478 23,800 3,540 Climbing Cleveland Center
04:19PM 41.4492 -82.6525 282° West 431 496 27,300 2,340 Climbing Cleveland Center
04:20PM 41.4628 -82.8164 276° West 436 502 28,500 1,500 Climbing Cleveland Center
04:21PM 41.4572 -82.9853 268° West 448 516 30,400 2,460 Climbing Cleveland Center
04:22PM 41.4622 -83.1461 272° West 448 516 33,500 2,100 Climbing Cleveland Center
04:23PM 41.4756 -83.2908 277° West 443 510 34,700 1,260 Climbing Cleveland Center
04:24PM 41.4903 -83.4522 277° West 443 510 36,100 1,620 Climbing Cleveland Center
04:25PM 41.4947 -83.6106 272° West 438 504 38,000 1,440 Climbing Cleveland Center
04:26PM 41.4947 -83.7631 270° West 433 498 39,000 720 Climbing Cleveland Center
04:27PM 41.5006 -83.9214 273° West 428 493 39,500 660 Climbing Cleveland Center
04:28PM 41.5167 -84.0831 278° West 434 499 40,400 720 Climbing Cleveland Center
04:30PM 41.5278 -84.3558 273° West 432 497 41,500 540 Climbing Chicago Center
04:31PM 41.5281 -84.5156 270° West 430 495 42,000 240 Climbing Chicago Center
04:32PM 41.5397 -84.6756 276° West 434 499 42,100 240 Climbing Chicago Center
04:33PM 41.5489 -84.8403 274° West 443 510 42,600 360 Climbing Chicago Center
04:34PM 41.5578 -85.0339 274° West 438 504 42,900 120 Climbing Chicago Center
04:35PM 41.5592 -85.1997 271° West 443 510 42,900  Level Chicago Center
04:36PM 41.5631 -85.3722 272° West 451 519 42,900  Level Chicago Center
04:37PM 41.5714 -85.5414 274° West 456 525 42,900  Level Chicago Center
04:38PM 41.5758 -85.7239 272° West 466 536 42,900  Level Chicago Center
04:39PM 41.5778 -85.8967 271° West 465 535 42,900  Level Chicago Center
04:40PM 41.5856 -86.0700 273° West 467 537 42,900  Level Chicago Center
04:41PM 41.5914 -86.2428 273° West 467 537 42,900  Level Chicago Center
04:42PM 41.5911 -86.4158 270° West 467 537 42,900  Level Chicago Center
04:43PM 41.5964 -86.6236 272° West 467 537 43,000  Climbing Chicago Center
04:44PM 41.6042 -86.8064 273° West 472 543 42,900  Descending Chicago Center
04:45PM 41.6053 -86.9797 271° West 471 542 43,000  Climbing Chicago Center
04:47PM 41.6021 -87.1285 271° West  Level FlightAware Approximate
04:48PM 41.6122 -87.3275 271° West 472 543 43,000  Level Chicago Center
04:49PM 41.6150 -87.4994 271° West 471 542 42,900  Descending Chicago Center
04:50PM 41.6133 -87.7067 269° West 469 540 43,000  Climbing Chicago Center
04:51PM 41.6172 -87.8794 272° West 474 545 42,900  Descending Chicago Center
04:52PM 41.6211 -88.0481 272° West 467 537 43,000  Climbing Chicago Center
04:53PM 41.6200 -88.2183 270° West 470 541 43,000  Level Chicago Center
04:54PM 41.6140 -88.1532 271° West  Level FlightAware Approximate
04:54PM 41.6197 -88.4236 270° West 468 539 43,000  Level Chicago Center
04:55PM 41.6239 -88.5944 272° West 465 535 42,900  Descending Chicago Center
04:56PM 41.6236 -88.7683 270° West 472 543 43,000  Climbing Chicago Center
04:57PM 41.6228 -88.9406 270° West 468 539 43,000 -60 Level Chicago Center
04:58PM 41.6247 -89.1489 271° West 470 541 42,900  Descending Chicago Center
04:59PM 41.6236 -89.3228 270° West 471 542 43,000  Climbing Chicago Center
05:00PM 41.6197 -89.4947 268° West 466 536 43,000  Level Chicago Center
05:01PM 41.6228 -89.6783 271° West 465 535 43,000 -60 Level Chicago Center
05:02PM 41.6208 -89.8500 269° West 464 534 42,900  Descending Chicago Center
05:03PM 41.6183 -90.0197 269° West 460 529 43,000  Climbing Chicago Center
05:04PM 41.6153 -90.1917 269° West 463 533 42,900  Descending Chicago Center
05:05PM 41.6147 -90.3706 270° West 482 555 43,000 -360 Climbing Chicago Center
05:06PM 41.6156 -90.5744 270° West 464 534 42,200 -1,080 Descending Chicago Center
05:08PM 41.6052 -90.7700 266° West  Level FlightAware Approximate
05:08PM 41.6125 -90.9181 266° West 464 534 39,700  Level Chicago Center
05:09PM 41.6083 -91.0858 268° West 457 526 37,700 -2,340 Descending Chicago Center
05:10PM 41.6075 -91.2561 270° West 458 527 34,900 -2,700 Descending Chicago Center
05:11PM 41.6200 -91.4558 275° West 455 524 32,200 -2,940 Descending Chicago Center
05:12PM 41.6114 -91.6161 266° West 442 509 28,900 -2,700 Descending Chicago Center
05:13PM 41.5883 -91.7783 259° West 444 511 26,700 -1,800 Descending Chicago Center
05:14PM 41.5792 -91.9417 266° West 443 510 25,300 -2,100 Descending Chicago Center
05:15PM 41.5806 -92.1000 271° West 433 498 22,400 -2,520 Descending Chicago Center
05:17PM 41.5822 -92.2642 271° West 441 507 20,100 -2,280 Descending Chicago Center
05:18PM 41.5786 -92.4503 269° West 421 484 17,800 -2,220 Descending Chicago Center
05:19PM 41.5711 -92.5917 266° West 390 449 15,600 -2,220 Descending Chicago Center
05:20PM 41.5686 -92.7300 269° West 378 435 13,200 -2,340 Descending Chicago Center
05:21PM 41.5547 -92.9036 264° West 356 410 10,500 -2,400 Descending Minneapolis Center
05:22PM 41.5389 -92.9825 255° West 328 377 8,600 -2,340 Descending Minneapolis Center
05:22PM 41.5278 -93.0161 246° West 319 367 8,100 -1,980 Descending Minneapolis Center
05:23PM 41.5136 -93.0853 255° West 290 334 6,600 -2,160 Descending Minneapolis Center
05:23PM 41.5011 -93.1236 246° West 285 328 5,900 -2,460 Descending Minneapolis Center
05:24PM 41.4742 -93.2164 249° West 271 312 3,300 -1,680 Descending Minneapolis Center
05:25PM 41.4675 -93.2706 261° West 260 299 3,100 -300 Descending Minneapolis Center
05:25PM 41.4578 -93.3106 252° West 243 280 3,000 -120 Descending Minneapolis Center
05:26PM 41.4556 -93.3550 266° West 239 275 3,000  Level Minneapolis Center
05:26PM 41.4447 -93.3972 251° West 237 273 3,000 -120 Level Minneapolis Center
05:27PM 41.4417 -93.4453 265° West 249 287 2,900 -120 Descending Minneapolis Center
05:27PM 41.4289 -93.4917 250° West 256 295 2,900 60 Level Minneapolis Center
05:28PM 41.4258 -93.5386 265° West 255 293 3,000 60 Climbing Minneapolis Center
05:28PM 41.4142 -93.5875 252° West 246 283 3,000  Level Minneapolis Center
05:29PM 41.4136 -93.6231 269° West 233 268 3,000  Level Minneapolis Center
05:29PM 41.4036 -93.6683 254° West 224 258 3,000  Level Minneapolis Center
05:30PM 41.4053 -93.7014 274° West 218 251 3,000  Level Minneapolis Center
05:30PM 41.3925 -93.7478 250° West 219 252 3,000 -300 Level Minneapolis Center
05:32PM 41.4272 -93.8439 296° West 194 223 2,500 -300 Descending Minneapolis Center
05:32PM 41.4414 -93.8381 17° North 192 221 2,500 60 Level Minneapolis Center
05:33PM 41.4544 -93.8053 62° Northeast 183 211 2,600  Climbing Minneapolis Center
05:33PM 41.4650 -93.7814 59° Northeast 179 206 2,500 -240 Descending Minneapolis Center
05:34PM 41.4869 -93.7467 50° Northeast 187 215 2,400 -780 Descending Minneapolis Center
05:34PM 41.4989 -93.7214 58° Northeast 187 215 1,700 -1,020 Descending Minneapolis Center
05:35PM 41.5136 -93.6969 51° Northeast 165 190 1,400 -600 Descending Minneapolis Center
05:35PM 41.5211 -93.6817 57° Northeast 141 162 1,100 -300 Descending Minneapolis Center
05:36PM 41.5353 -93.6564 53° Northeast 74 85 900 -120 Descending Minneapolis Center
05:37PM 41.5381 -93.6497 61° Northeast 26 30 900  Level Minneapolis Center
05:38PM 41.5369 -93.6497 180° South 8 9 900  Level Minneapolis Center
05:39PM 41.5347 -93.6478 147° Southeast 8 9 900  Level Minneapolis Center